Time;durP1;ratioP1;P1;durP2;ratioP2;P2;SDS_P1;SDS_P2;PMS_P1;PMS_P2;Temp;Humidity;BMP_temperature;BMP_pressure;BME280_temperature;BME280_humidity;BME280_pressure;Samples;Min_cycle;Max_cycle;Signal;HPM_P1;HPM_P2
2023/12/21 00:00:48;;;;;;;3.72;1.83;;;;;;;6.86;93.13;97900.56;4200153;28;20655;-85
2023/12/21 00:02:51;;;;;;;3.38;1.33;;;;;;;6.86;93.36;97900.56;4187028;28;20201;-85
2023/12/21 00:04:53;;;;;;;2.35;1.30;;;;;;;6.88;93.79;97905.66;4187926;28;20205;-85
2023/12/21 00:06:57;;;;;;;3.20;1.50;;;;;;;6.91;93.71;97902.88;4187299;28;20289;-85
2023/12/21 00:09:00;;;;;;;5.65;1.30;;;;;;;6.91;93.53;97906.31;4207968;28;20209;-85
2023/12/21 00:11:03;;;;;;;2.20;1.23;;;;;;;6.87;94.46;97897.06;4187561;28;20216;-85
2023/12/21 00:13:06;;;;;;;1.90;1.20;;;;;;;6.95;92.83;97907.81;4200305;28;20247;-85
2023/12/21 00:15:10;;;;;;;3.47;1.30;;;;;;;6.96;94.03;97906.91;4183955;28;20713;-85
2023/12/21 00:17:14;;;;;;;3.83;0.93;;;;;;;6.99;92.73;97898.09;4196775;28;20574;-85
2023/12/21 00:19:18;;;;;;;2.65;1.33;;;;;;;6.96;94.15;97887.91;4201779;28;20289;-85
2023/12/21 00:21:20;;;;;;;3.17;1.35;;;;;;;6.95;94.42;97881.88;4199073;28;20748;-85
2023/12/21 00:23:23;;;;;;;4.80;1.52;;;;;;;6.95;94.39;97873.28;4201862;28;20267;-85
2023/12/21 00:25:25;;;;;;;2.47;1.35;;;;;;;6.98;94.96;97873.13;4190413;28;20255;-85
2023/12/21 00:27:29;;;;;;;2.40;1.15;;;;;;;6.95;93.97;97874.13;4190547;28;20280;-85
2023/12/21 00:29:32;;;;;;;3.58;1.15;;;;;;;6.92;94.53;97870.88;4198532;28;20194;-85
2023/12/21 00:31:34;;;;;;;1.58;1.20;;;;;;;6.97;95.49;97887.81;4203222;28;20207;-85
2023/12/21 00:33:39;;;;;;;2.05;1.10;;;;;;;6.98;94.69;97888.66;4199698;28;20211;-85
2023/12/21 00:35:43;;;;;;;2.67;1.13;;;;;;;6.94;94.24;97887.16;4199588;28;20213;-85
2023/12/21 00:37:46;;;;;;;2.85;1.42;;;;;;;6.99;94.44;97885.13;4185757;28;20199;-85
2023/12/21 00:39:49;;;;;;;1.90;1.25;;;;;;;7.02;94.46;97892.72;4202774;28;20295;-85
2023/12/21 00:41:52;;;;;;;3.25;1.48;;;;;;;7.04;94.86;97889.13;4200798;28;20234;-85
2023/12/21 00:43:56;;;;;;;4.32;1.42;;;;;;;7.06;95.66;97882.09;4200118;28;20669;-85
2023/12/21 00:45:59;;;;;;;1.88;1.10;;;;;;;6.96;95.58;97877.53;4215352;28;20208;-85
2023/12/21 00:48:02;;;;;;;2.10;1.10;;;;;;;6.99;95.37;97867.84;4213514;28;20204;-85
2023/12/21 00:50:08;;;;;;;2.15;1.00;;;;;;;6.96;97.67;97870.59;4206173;28;20964;-85
2023/12/21 00:52:11;;;;;;;3.15;1.20;;;;;;;6.91;96.24;97876.97;4189433;28;20210;-85
2023/12/21 00:54:14;;;;;;;2.03;1.08;;;;;;;6.94;97.66;97876.78;4185205;28;20202;-85
2023/12/21 00:56:17;;;;;;;1.90;1.10;;;;;;;6.89;98.67;97874.47;4199492;28;20208;-85
2023/12/21 00:58:20;;;;;;;1.85;1.00;;;;;;;6.86;97.96;97863.44;4206688;28;20213;-85
2023/12/21 01:00:24;;;;;;;3.25;1.10;;;;;;;6.86;98.75;97863.44;4188365;28;21120;-86
2023/12/21 01:02:27;;;;;;;1.98;1.10;;;;;;;6.87;98.18;97859.91;4191813;28;20202;-85
2023/12/21 01:04:30;;;;;;;2.47;0.90;;;;;;;6.86;99.08;97850.50;4185777;28;20234;-85
2023/12/21 01:06:36;;;;;;;2.10;0.98;;;;;;;6.86;98.70;97843.53;4191860;28;20628;-85
2023/12/21 01:08:39;;;;;;;1.50;0.80;;;;;;;6.84;98.58;97845.41;4188951;28;20294;-85
2023/12/21 01:10:42;;;;;;;2.40;0.98;;;;;;;6.88;98.46;97846.88;4201540;28;20197;-85
2023/12/21 01:12:46;;;;;;;3.17;1.23;;;;;;;6.91;98.30;97841.50;4200960;28;20270;-85
2023/12/21 01:14:49;;;;;;;1.73;0.82;;;;;;;6.98;98.62;97836.81;4198141;28;20208;-85
2023/12/21 01:16:51;;;;;;;1.67;0.70;;;;;;;7.00;97.20;97822.00;4197975;28;20239;-85
2023/12/21 01:18:54;;;;;;;1.33;0.77;;;;;;;6.98;98.49;97819.50;4199227;28;20203;-85
2023/12/21 01:20:58;;;;;;;1.70;0.93;;;;;;;6.96;99.08;97817.91;4201723;28;20750;-85
2023/12/21 01:23:03;;;;;;;2.10;0.95;;;;;;;6.91;98.44;97809.59;4200095;28;20577;-85
2023/12/21 01:25:07;;;;;;;1.50;0.90;;;;;;;6.94;98.25;97812.81;4186710;28;20221;-85
2023/12/21 01:27:10;;;;;;;1.85;0.82;;;;;;;6.97;97.79;97804.88;4183855;28;20212;-85
2023/12/21 01:29:31;;;;;;;1.65;0.73;;;;;;;6.98;98.15;97805.72;4201842;28;20222;-85
2023/12/21 01:31:34;;;;;;;2.20;0.80;;;;;;;7.01;98.31;97801.19;4197633;28;20224;-85
2023/12/21 01:33:38;;;;;;;1.30;0.60;;;;;;;7.00;97.70;97798.69;4185869;28;20726;-85
2023/12/21 01:35:41;;;;;;;1.58;0.70;;;;;;;6.98;97.01;97801.34;4200782;28;20209;-86
2023/12/21 01:37:44;;;;;;;3.00;0.80;;;;;;;6.96;97.42;97792.00;4200964;28;20236;-85
2023/12/21 01:39:49;;;;;;;1.20;0.60;;;;;;;6.92;97.55;97788.75;4185136;28;20198;-85
2023/12/21 01:41:55;;;;;;;1.40;0.68;;;;;;;6.89;98.27;97791.53;4186451;28;20220;-85
2023/12/21 01:43:59;;;;;;;1.55;0.70;;;;;;;6.89;97.99;97793.28;4205175;28;20224;-86
2023/12/21 01:46:03;;;;;;;1.30;0.60;;;;;;;6.94;97.19;97780.88;4201604;28;20209;-85
2023/12/21 01:48:07;;;;;;;1.20;0.52;;;;;;;6.93;97.58;97785.25;4215689;27;20237;-85
2023/12/21 01:50:11;;;;;;;1.38;0.60;;;;;;;6.91;96.98;97783.66;4191440;28;20214;-86
2023/12/21 01:52:14;;;;;;;1.10;0.60;;;;;;;6.96;97.03;97773.84;4201534;28;20335;-85
2023/12/21 01:54:18;;;;;;;1.20;0.60;;;;;;;6.91;98.12;97753.38;4204879;28;20208;-86
2023/12/21 01:56:21;;;;;;;1.60;0.60;;;;;;;6.92;97.23;97754.25;4202843;28;20204;-87
2023/12/21 01:58:25;;;;;;;1.52;0.50;;;;;;;6.98;98.14;97749.53;4205884;28;20307;-86
2023/12/21 02:00:29;;;;;;;1.05;0.50;;;;;;;7.02;96.74;97750.16;4202521;28;20215;-86
2023/12/21 02:02:32;;;;;;;1.00;0.50;;;;;;;6.98;97.08;97744.34;4203027;28;20209;-86
2023/12/21 02:04:36;;;;;;;1.10;0.55;;;;;;;6.94;97.14;97742.00;4183812;28;20230;-86
2023/12/21 02:06:40;;;;;;;1.38;0.60;;;;;;;6.99;97.26;97739.97;4204569;28;20197;-86
2023/12/21 02:08:43;;;;;;;2.30;0.70;;;;;;;6.92;96.48;97739.50;4205523;28;20231;-86
2023/12/21 02:10:46;;;;;;;1.00;0.40;;;;;;;6.96;97.28;97740.16;4200146;28;20252;-86
2023/12/21 02:12:51;;;;;;;1.20;0.60;;;;;;;6.91;97.22;97718.88;4199102;28;20232;-86
2023/12/21 02:14:54;;;;;;;4.72;0.70;;;;;;;6.95;96.39;97720.38;4202118;28;20209;-86
2023/12/21 02:17:02;;;;;;;1.80;0.60;;;;;;;6.94;96.12;97716.91;4192249;28;20205;-86
2023/12/21 02:19:05;;;;;;;1.95;0.70;;;;;;;6.94;96.48;97716.09;4206030;28;20206;-86
2023/12/21 02:21:10;;;;;;;1.10;0.50;;;;;;;6.98;95.91;97715.81;4187502;28;20225;-86
2023/12/21 02:23:15;;;;;;;1.10;0.50;;;;;;;7.03;95.80;97717.19;4189323;28;20284;-86
2023/12/21 02:25:20;;;;;;;1.30;0.60;;;;;;;7.05;95.70;97710.19;4188024;28;20230;-86
2023/12/21 02:27:23;;;;;;;1.20;0.60;;;;;;;7.04;95.69;97698.13;4202794;28;20236;-86
2023/12/21 02:29:26;;;;;;;1.08;0.50;;;;;;;7.00;96.16;97700.19;4204113;28;20209;-86
2023/12/21 02:31:29;;;;;;;1.10;0.40;;;;;;;6.99;96.10;97693.31;4201986;28;20348;-86
2023/12/21 02:33:32;;;;;;;1.10;0.50;;;;;;;7.02;95.94;97677.56;4183504;28;20226;-86
2023/12/21 02:35:36;;;;;;;1.30;0.68;;;;;;;7.05;95.15;97676.47;4185107;28;20361;-86
2023/12/21 02:37:39;;;;;;;2.85;0.60;;;;;;;7.04;96.19;97685.16;4188158;28;20623;-85
2023/12/21 02:39:42;;;;;;;1.30;0.40;;;;;;;7.01;96.34;97665.56;4197650;28;20606;-86
2023/12/21 02:41:48;;;;;;;1.00;0.40;;;;;;;7.03;96.41;97679.25;4202165;28;20260;-85
2023/12/21 02:43:51;;;;;;;1.15;0.50;;;;;;;7.03;95.70;97674.06;4198854;28;20292;-86
2023/12/21 02:45:53;;;;;;;1.10;0.47;;;;;;;7.03;95.51;97675.72;4184625;28;20710;-86
2023/12/21 02:47:56;;;;;;;1.30;0.50;;;;;;;7.06;96.13;97665.16;4188809;28;20201;-86
2023/12/21 02:50:00;;;;;;;0.90;0.32;;;;;;;7.06;95.33;97662.56;4203841;28;20213;-85
2023/12/21 02:52:03;;;;;;;1.00;0.43;;;;;;;7.06;94.95;97666.94;4199272;28;20320;-86
2023/12/21 02:54:07;;;;;;;1.00;0.40;;;;;;;7.06;96.12;97659.16;4203403;28;20205;-86
2023/12/21 02:56:10;;;;;;;1.58;0.60;;;;;;;7.10;95.02;97645.91;4199851;28;20600;-86
2023/12/21 02:58:14;;;;;;;1.33;0.60;;;;;;;7.18;95.32;97648.03;4201325;28;20227;-86
2023/12/21 03:00:18;;;;;;;1.30;0.57;;;;;;;7.21;96.31;97640.06;4202107;28;20202;-85
2023/12/21 03:02:22;;;;;;;2.15;0.60;;;;;;;7.28;94.43;97634.41;4204705;28;20205;-85
2023/12/21 03:04:25;;;;;;;1.10;0.50;;;;;;;7.26;94.95;97625.03;4206961;28;20239;-85
2023/12/21 03:06:28;;;;;;;1.00;0.40;;;;;;;7.21;94.12;97620.13;4189174;28;20255;-85
2023/12/21 03:08:32;;;;;;;1.20;0.43;;;;;;;7.24;95.62;97609.56;4197843;28;20220;-85
2023/12/21 03:10:35;;;;;;;1.50;0.40;;;;;;;7.26;94.54;97607.75;4200257;28;20211;-85
2023/12/21 03:12:38;;;;;;;1.10;0.40;;;;;;;7.26;94.04;97610.34;4198664;28;20223;-85
2023/12/21 03:14:42;;;;;;;1.10;0.50;;;;;;;7.27;94.93;97600.78;4204859;28;20277;-85
2023/12/21 03:16:45;;;;;;;1.00;0.40;;;;;;;7.26;93.98;97605.16;4200377;28;20554;-85
2023/12/21 03:18:49;;;;;;;1.00;0.43;;;;;;;7.26;95.35;97601.69;4205473;28;20205;-85
2023/12/21 03:20:52;;;;;;;2.03;1.00;;;;;;;7.28;94.40;97603.28;4191304;28;20202;-85
2023/12/21 03:22:55;;;;;;;1.40;0.45;;;;;;;7.31;93.94;97595.31;4206843;28;20228;-85
2023/12/21 03:24:58;;;;;;;1.23;0.47;;;;;;;7.30;94.60;97598.00;4189038;28;20251;-85
2023/12/21 03:27:04;;;;;;;2.33;0.50;;;;;;;7.32;95.40;97599.56;4207993;28;20313;-85
2023/12/21 03:29:07;;;;;;;1.08;0.50;;;;;;;7.33;95.00;97598.63;4184879;28;20203;-85
2023/12/21 03:31:11;;;;;;;0.90;0.40;;;;;;;7.31;94.64;97592.72;4213407;28;20203;-85
2023/12/21 03:33:15;;;;;;;1.25;0.50;;;;;;;7.29;94.61;97593.72;4205578;28;20569;-85
2023/12/21 03:35:19;;;;;;;1.63;0.50;;;;;;;7.36;94.30;97595.00;4194790;28;20703;-85
2023/12/21 03:37:21;;;;;;;1.02;0.40;;;;;;;7.31;93.66;97595.31;4186295;28;20237;-85
2023/12/21 03:39:24;;;;;;;1.15;0.47;;;;;;;7.32;94.31;97588.34;4190070;28;21901;-85
2023/12/21 03:41:27;;;;;;;1.17;0.47;;;;;;;7.36;95.56;97575.09;4186286;28;20216;-85
2023/12/21 03:43:31;;;;;;;1.25;0.50;;;;;;;7.35;94.40;97572.59;4191249;28;20319;-85
2023/12/21 03:45:39;;;;;;;1.00;0.40;;;;;;;7.34;94.27;97576.13;4206320;28;20232;-85
2023/12/21 03:47:44;;;;;;;1.00;0.30;;;;;;;7.31;94.73;97568.56;4189644;28;20305;-85
2023/12/21 03:49:46;;;;;;;0.90;0.40;;;;;;;7.35;95.76;97588.16;4188826;28;20205;-85
2023/12/21 03:51:49;;;;;;;1.20;0.60;;;;;;;7.36;94.52;97567.31;4203447;28;20679;-85
2023/12/21 03:53:54;;;;;;;1.00;0.30;;;;;;;7.33;94.90;97575.28;4182365;28;20291;-85
2023/12/21 03:55:56;;;;;;;1.00;0.40;;;;;;;7.36;96.12;97580.28;4203788;28;20204;-85
2023/12/21 03:58:00;;;;;;;1.10;0.40;;;;;;;7.34;97.07;97569.19;4199651;28;20226;-85
2023/12/21 04:00:03;;;;;;;1.15;0.30;;;;;;;7.23;97.19;97565.59;4204327;28;20305;-85
2023/12/21 04:02:07;;;;;;;1.40;0.40;;;;;;;7.20;99.69;97571.81;4201359;28;20208;-85
2023/12/21 04:04:11;;;;;;;0.90;0.30;;;;;;;7.25;98.70;97561.97;4195687;28;20209;-85
2023/12/21 04:06:14;;;;;;;1.02;0.40;;;;;;;7.25;99.17;97564.56;4186488;28;20218;-85
2023/12/21 04:08:21;;;;;;;1.08;0.40;;;;;;;7.22;99.11;97566.53;4206159;28;20417;-85
2023/12/21 04:10:24;;;;;;;1.10;0.40;;;;;;;7.20;100.00;97570.97;4200633;28;20206;-85
2023/12/21 04:12:27;;;;;;;1.00;0.38;;;;;;;7.24;100.00;97562.06;4200385;28;20209;-86
2023/12/21 04:14:29;;;;;;;1.20;0.50;;;;;;;7.22;100.00;97554.41;4203949;28;20208;-86
2023/12/21 04:16:32;;;;;;;0.90;0.30;;;;;;;7.24;100.00;97546.53;4200523;28;20194;-86
2023/12/21 04:18:36;;;;;;;0.98;0.40;;;;;;;7.19;99.87;97546.81;4203865;28;20237;-86
2023/12/21 04:20:40;;;;;;;0.90;0.30;;;;;;;7.21;100.00;97538.94;4200937;28;20201;-86
2023/12/21 04:22:43;;;;;;;1.00;0.40;;;;;;;7.21;100.00;97533.75;4205881;28;20240;-86
2023/12/21 04:24:47;;;;;;;1.00;0.40;;;;;;;7.18;100.00;97523.56;4197894;28;24441;-85
2023/12/21 04:26:49;;;;;;;1.10;0.40;;;;;;;7.14;100.00;97516.91;4204765;28;20233;-85
2023/12/21 04:28:53;;;;;;;1.00;0.40;;;;;;;7.17;100.00;97529.69;4203010;28;20292;-85
2023/12/21 04:30:56;;;;;;;1.20;0.40;;;;;;;7.20;100.00;97526.88;4205780;28;20197;-85
2023/12/21 04:32:59;;;;;;;1.17;0.30;;;;;;;7.22;100.00;97532.84;4202226;28;20215;-85
2023/12/21 04:35:03;;;;;;;1.23;0.52;;;;;;;7.27;99.67;97517.81;4187547;28;20206;-85
2023/12/21 04:37:07;;;;;;;1.00;0.32;;;;;;;7.24;100.00;97511.03;4204590;28;20700;-86
2023/12/21 04:39:10;;;;;;;1.25;0.50;;;;;;;7.24;100.00;97515.41;4204021;28;20206;-86
2023/12/21 04:41:14;;;;;;;0.90;0.30;;;;;;;7.19;100.00;97513.09;4219710;28;20257;-86
2023/12/21 04:43:16;;;;;;;1.30;0.60;;;;;;;7.21;100.00;97513.00;4206986;28;20204;-86
2023/12/21 04:45:19;;;;;;;1.10;0.40;;;;;;;7.23;100.00;97508.53;4190043;28;20219;-86
2023/12/21 04:47:22;;;;;;;1.33;0.57;;;;;;;7.24;100.00;97518.81;4202986;28;20317;-86
2023/12/21 04:49:27;;;;;;;0.90;0.30;;;;;;;7.20;100.00;97517.38;4203258;28;20198;-86
2023/12/21 04:51:30;;;;;;;0.95;0.32;;;;;;;7.20;100.00;97521.69;4203531;28;20544;-87
2023/12/21 04:53:34;;;;;;;1.38;0.40;;;;;;;7.17;100.00;97517.56;4187383;28;20341;-86
2023/12/21 04:55:38;;;;;;;1.00;0.30;;;;;;;7.19;100.00;97504.50;4187214;28;20215;-87
2023/12/21 04:57:40;;;;;;;0.90;0.30;;;;;;;7.18;100.00;97498.47;4206725;28;20212;-86
2023/12/21 04:59:44;;;;;;;1.55;0.38;;;;;;;7.18;100.00;97487.28;4219022;28;20217;-86
2023/12/21 05:01:49;;;;;;;1.63;0.40;;;;;;;7.18;100.00;97476.91;4202152;28;20223;-83
2023/12/21 05:03:53;;;;;;;1.00;0.40;;;;;;;7.17;100.00;97475.22;4205672;28;20562;-86
2023/12/21 05:05:56;;;;;;;1.00;0.40;;;;;;;7.16;100.00;97479.59;4206952;28;20206;-87
2023/12/21 05:07:59;;;;;;;1.20;0.40;;;;;;;7.20;100.00;97481.06;4200141;28;20875;-86
2023/12/21 05:10:05;;;;;;;0.95;0.38;;;;;;;7.18;100.00;97487.28;4201244;28;20616;-86
2023/12/21 05:12:09;;;;;;;1.48;0.40;;;;;;;7.15;100.00;97487.47;4189116;28;20201;-86
2023/12/21 05:14:12;;;;;;;1.00;0.50;;;;;;;7.16;100.00;97495.16;4203756;28;20203;-86
2023/12/21 05:16:16;;;;;;;1.38;0.40;;;;;;;7.21;100.00;97490.50;4198876;28;20661;-87
2023/12/21 05:18:19;;;;;;;1.33;0.35;;;;;;;7.20;100.00;97481.06;4192114;28;20686;-87
2023/12/21 05:20:23;;;;;;;1.38;0.55;;;;;;;7.18;100.00;97485.50;4205733;28;20193;-87
2023/12/21 05:22:26;;;;;;;0.95;0.30;;;;;;;7.23;100.00;97499.03;4203374;28;20201;-86
2023/12/21 05:24:29;;;;;;;1.13;0.45;;;;;;;7.18;100.00;97488.09;4201682;28;20610;-86
2023/12/21 05:26:33;;;;;;;1.60;0.30;;;;;;;7.19;100.00;97487.19;4200168;28;20574;-87
2023/12/21 05:28:38;;;;;;;0.90;0.30;;;;;;;7.24;100.00;97481.69;4201392;28;20581;-87
2023/12/21 05:30:41;;;;;;;1.08;0.40;;;;;;;7.24;100.00;97476.50;4202929;28;20696;-86
2023/12/21 05:32:44;;;;;;;0.95;0.30;;;;;;;7.24;100.00;97460.94;4189269;28;20289;-86
2023/12/21 05:34:48;;;;;;;1.10;0.40;;;;;;;7.23;100.00;97460.13;4200471;28;20221;-86
2023/12/21 05:36:52;;;;;;;2.45;0.50;;;;;;;7.26;100.00;97449.56;4215793;28;20803;-86
2023/12/21 05:38:55;;;;;;;1.27;0.50;;;;;;;7.29;100.00;97454.53;4192580;28;20211;-87
2023/12/21 05:40:58;;;;;;;1.10;0.40;;;;;;;7.27;100.00;97446.00;4201915;28;20205;-85
2023/12/21 05:43:02;;;;;;;2.00;0.52;;;;;;;7.28;100.00;97463.25;4187437;28;20207;-86
2023/12/21 05:45:07;;;;;;;0.90;0.30;;;;;;;7.30;100.00;97463.97;4202617;28;20201;-86
2023/12/21 05:47:11;;;;;;;1.00;0.47;;;;;;;7.33;100.00;97449.97;4182538;28;20227;-86
2023/12/21 05:49:14;;;;;;;1.00;0.35;;;;;;;7.35;100.00;97453.28;4216935;28;20731;-86
2023/12/21 05:51:17;;;;;;;1.30;0.45;;;;;;;7.37;100.00;97449.69;4203371;28;20216;-86
2023/12/21 05:53:20;;;;;;;1.23;0.43;;;;;;;7.33;100.00;97448.22;4190309;28;20685;-86
2023/12/21 05:55:22;;;;;;;0.98;0.32;;;;;;;7.34;100.00;97455.06;4200359;28;20235;-86
2023/12/21 05:57:26;;;;;;;0.90;0.30;;;;;;;7.35;100.00;97442.91;4203139;28;20603;-86
2023/12/21 05:59:31;;;;;;;1.00;0.40;;;;;;;7.39;100.00;97446.97;4191152;28;20345;-86
2023/12/21 06:01:34;;;;;;;1.17;0.40;;;;;;;7.40;100.00;97431.31;4207310;28;20217;-86
2023/12/21 06:03:37;;;;;;;1.17;0.50;;;;;;;7.41;100.00;97432.13;4199232;28;20205;-86
2023/12/21 06:05:41;;;;;;;1.00;0.43;;;;;;;7.43;100.00;97425.94;4201511;28;20221;-86
2023/12/21 06:07:44;;;;;;;1.40;0.50;;;;;;;7.41;100.00;97424.34;4199280;28;20228;-86
2023/12/21 06:09:47;;;;;;;1.00;0.40;;;;;;;7.44;100.00;97426.75;4202149;28;20675;-86
2023/12/21 06:11:50;;;;;;;1.00;0.40;;;;;;;7.45;100.00;97423.22;4200790;28;20688;-85
2023/12/21 06:13:53;;;;;;;1.00;0.40;;;;;;;7.43;100.00;97414.69;4195778;28;20665;-86
2023/12/21 06:15:58;;;;;;;1.10;0.32;;;;;;;7.48;100.00;97417.84;4199868;28;20205;-86
2023/12/21 06:18:00;;;;;;;1.27;0.45;;;;;;;7.48;100.00;97404.88;4201276;28;20192;-85
2023/12/21 06:20:04;;;;;;;1.45;0.40;;;;;;;7.50;99.43;97403.81;4201615;28;20262;-86
2023/12/21 06:22:07;;;;;;;1.00;0.40;;;;;;;7.49;99.88;97394.38;4196868;28;20242;-86
2023/12/21 06:24:10;;;;;;;1.42;0.40;;;;;;;7.48;99.43;97383.16;4205197;28;20254;-86
2023/12/21 06:26:13;;;;;;;1.50;0.45;;;;;;;7.47;99.38;97375.50;4202614;28;20744;-86
2023/12/21 06:28:17;;;;;;;1.00;0.40;;;;;;;7.49;100.00;97373.63;4183463;28;20236;-86
2023/12/21 06:30:20;;;;;;;1.20;0.50;;;;;;;7.51;98.97;97382.13;4198329;28;20211;-86
2023/12/21 06:32:24;;;;;;;1.70;0.60;;;;;;;7.51;100.00;97372.59;4214694;28;20296;-86
2023/12/21 06:34:27;;;;;;;1.30;0.50;;;;;;;7.53;100.00;97364.69;4203573;28;20197;-86
2023/12/21 06:36:32;;;;;;;1.40;0.40;;;;;;;7.53;99.39;97362.09;4205092;28;20236;-86
2023/12/21 06:38:35;;;;;;;0.90;0.30;;;;;;;7.49;100.00;97368.44;4199104;28;20650;-86
2023/12/21 06:40:38;;;;;;;1.38;0.50;;;;;;;7.50;100.00;97364.91;4184677;28;20207;-86
2023/12/21 06:42:42;;;;;;;1.08;0.50;;;;;;;7.55;100.00;97362.84;4197186;28;20211;-86
2023/12/21 06:44:45;;;;;;;2.78;0.30;;;;;;;7.57;99.86;97350.59;4190724;28;20199;-86
2023/12/21 06:46:50;;;;;;;1.00;0.40;;;;;;;7.57;100.00;97355.78;4201789;28;20252;-86
2023/12/21 06:48:55;;;;;;;1.08;0.43;;;;;;;7.57;99.86;97351.41;4195554;28;20210;-86
2023/12/21 06:50:57;;;;;;;1.00;0.50;;;;;;;7.56;99.80;97357.56;4198823;28;20219;-86
2023/12/21 06:53:00;;;;;;;1.10;0.50;;;;;;;7.58;99.37;97358.28;4200154;28;20206;-86
2023/12/21 06:55:04;;;;;;;1.10;0.40;;;;;;;7.58;99.91;97365.25;4199322;28;20205;-86
2023/12/21 06:57:07;;;;;;;1.10;0.50;;;;;;;7.61;100.00;97357.25;4200961;28;20537;-86
2023/12/21 06:59:11;;;;;;;1.38;0.50;;;;;;;7.64;100.00;97355.25;4200411;28;20200;-85
2023/12/21 07:01:13;;;;;;;1.10;0.40;;;;;;;7.64;100.00;97349.25;4197618;28;20242;-86
2023/12/21 07:03:16;;;;;;;1.30;0.60;;;;;;;7.64;99.52;97351.84;4200496;28;20664;-86
2023/12/21 07:05:21;;;;;;;1.15;0.50;;;;;;;7.66;100.00;97353.38;4201382;28;20249;-86
2023/12/21 07:07:24;;;;;;;1.63;0.40;;;;;;;7.68;99.85;97338.56;4205250;28;20218;-86
2023/12/21 07:09:27;;;;;;;1.20;0.43;;;;;;;7.70;100.00;97343.63;4200425;28;20207;-86
2023/12/21 07:11:30;;;;;;;1.00;0.40;;;;;;;7.69;100.00;97344.56;4215439;28;20204;-86
2023/12/21 07:13:34;;;;;;;1.60;0.50;;;;;;;7.69;99.94;97336.78;4183492;28;20274;-86
2023/12/21 07:15:37;;;;;;;0.95;0.40;;;;;;;7.70;100.00;97331.50;4202019;28;20697;-85
2023/12/21 07:17:40;;;;;;;1.08;0.50;;;;;;;7.75;99.98;97342.38;4207313;28;20293;-86
2023/12/21 07:19:42;;;;;;;1.00;0.50;;;;;;;7.74;100.00;97337.28;4201025;28;20208;-86
2023/12/21 07:21:47;;;;;;;1.42;0.57;;;;;;;7.74;100.00;97332.09;4199638;28;20209;-86
2023/12/21 07:23:50;;;;;;;1.20;0.40;;;;;;;7.78;100.00;97328.38;4187249;28;20303;-87
2023/12/21 07:25:53;;;;;;;1.15;0.40;;;;;;;7.82;100.00;97324.59;4183523;28;20216;-86
2023/12/21 07:27:55;;;;;;;1.10;0.32;;;;;;;7.85;100.00;97324.38;4183609;28;20223;-86
2023/12/21 07:29:59;;;;;;;2.78;0.45;;;;;;;7.82;100.00;97324.59;4191049;28;20234;-86
2023/12/21 07:32:02;;;;;;;0.90;0.40;;;;;;;7.86;100.00;97323.47;4185007;28;20564;-86
2023/12/21 07:34:06;;;;;;;1.17;0.50;;;;;;;7.86;100.00;97321.69;4202678;28;20254;-86
2023/12/21 07:36:09;;;;;;;1.75;0.40;;;;;;;7.87;100.00;97310.38;4188373;28;20211;-86
2023/12/21 07:38:14;;;;;;;1.00;0.40;;;;;;;7.91;100.00;97303.19;4217808;28;20207;-86
2023/12/21 07:40:17;;;;;;;0.90;0.30;;;;;;;7.93;100.00;97290.97;4190242;28;20215;-86
2023/12/21 07:42:20;;;;;;;1.10;0.50;;;;;;;7.91;100.00;97298.00;4200365;28;20896;-86
2023/12/21 07:44:24;;;;;;;0.93;0.38;;;;;;;7.88;99.98;97299.06;4188189;28;20221;-86
2023/12/21 07:46:27;;;;;;;1.30;0.52;;;;;;;7.91;100.00;97292.81;4200236;28;20193;-86
2023/12/21 07:48:30;;;;;;;1.30;0.60;;;;;;;7.90;100.00;97298.97;4201184;28;20701;-85
2023/12/21 07:50:34;;;;;;;1.25;0.50;;;;;;;7.94;100.00;97290.84;4191295;28;20647;-86
2023/12/21 07:52:37;;;;;;;1.00;0.30;;;;;;;8.00;98.96;97296.44;4201926;28;20199;-86
2023/12/21 07:54:42;;;;;;;1.20;0.40;;;;;;;8.00;100.00;97291.22;4193202;28;20522;-86
2023/12/21 07:56:46;;;;;;;1.20;0.45;;;;;;;8.00;99.55;97285.22;4190842;28;20206;-86
2023/12/21 07:58:49;;;;;;;2.35;0.55;;;;;;;8.02;99.93;97284.16;4205988;28;20208;-86
2023/12/21 08:00:52;;;;;;;1.00;0.40;;;;;;;8.05;100.00;97278.75;4191553;28;20203;-86
2023/12/21 08:02:55;;;;;;;1.20;0.40;;;;;;;8.05;100.00;97264.94;4212868;28;20214;-86
2023/12/21 08:04:58;;;;;;;1.38;0.55;;;;;;;8.02;100.00;97280.75;4209819;28;20311;-86
2023/12/21 08:07:02;;;;;;;1.10;0.45;;;;;;;8.02;99.55;97281.56;4193370;28;20229;-86
2023/12/21 08:09:09;;;;;;;1.15;0.50;;;;;;;8.06;99.46;97284.78;4191344;28;20721;-86
2023/12/21 08:11:13;;;;;;;1.05;0.40;;;;;;;8.06;99.93;97283.00;4194002;28;20213;-86
2023/12/21 08:13:16;;;;;;;5.18;0.60;;;;;;;8.07;99.53;97287.28;4192270;28;20776;-86
2023/12/21 08:15:19;;;;;;;1.10;0.50;;;;;;;8.10;100.00;97268.03;4200640;28;20230;-88
2023/12/21 08:17:22;;;;;;;1.08;0.47;;;;;;;8.10;99.86;97274.06;4186306;28;20201;-87
2023/12/21 08:19:25;;;;;;;1.55;0.60;;;;;;;8.06;100.00;97267.44;4189424;28;20202;-88
2023/12/21 08:21:29;;;;;;;1.15;0.40;;;;;;;8.08;100.00;97270.75;4206831;28;20768;-86
2023/12/21 08:23:31;;;;;;;1.10;0.40;;;;;;;8.10;100.00;97273.22;4190473;28;20241;-86
2023/12/21 08:25:34;;;;;;;1.98;0.50;;;;;;;8.08;100.00;97273.34;4209512;28;20228;-86
2023/12/21 08:27:41;;;;;;;1.65;0.50;;;;;;;8.08;100.00;97260.34;4188717;28;21040;-87
2023/12/21 08:29:44;;;;;;;2.10;0.50;;;;;;;8.07;100.00;97263.91;4223334;27;20251;-87
2023/12/21 08:31:47;;;;;;;1.10;0.50;;;;;;;8.07;100.00;97255.28;4206679;28;20223;-87
2023/12/21 08:33:49;;;;;;;1.30;0.50;;;;;;;8.10;100.00;97255.91;4206661;28;20199;-87
2023/12/21 08:35:53;;;;;;;1.15;0.55;;;;;;;8.15;100.00;97272.00;4193625;28;20703;-89
2023/12/21 08:37:59;;;;;;;1.10;0.40;;;;;;;8.17;100.00;97269.28;4211531;28;20235;-87
2023/12/21 08:40:02;;;;;;;1.10;0.40;;;;;;;8.21;100.00;97261.16;4192046;28;20618;-88
2023/12/21 08:42:06;;;;;;;1.00;0.40;;;;;;;8.21;100.00;97255.13;4210613;28;20273;-86
2023/12/21 08:44:11;;;;;;;1.15;0.50;;;;;;;8.24;100.00;97266.16;4193089;28;20740;-86
2023/12/21 08:46:14;;;;;;;1.20;0.40;;;;;;;8.22;100.00;97252.41;4185455;28;20270;-89
2023/12/21 08:48:17;;;;;;;1.30;0.50;;;;;;;8.24;100.00;97262.69;4189584;28;20260;-88
2023/12/21 08:50:20;;;;;;;1.27;0.43;;;;;;;8.28;100.00;97262.38;4208192;28;20262;-89
2023/12/21 08:52:23;;;;;;;1.13;0.50;;;;;;;8.28;100.00;97262.38;4218446;28;20250;-89
2023/12/21 08:54:27;;;;;;;1.00;0.40;;;;;;;8.29;100.00;97237.25;4189911;28;20295;-90
2023/12/21 08:56:32;;;;;;;1.00;0.40;;;;;;;8.30;100.00;97238.88;4203239;28;20197;-88
2023/12/21 08:58:35;;;;;;;1.67;0.50;;;;;;;8.33;100.00;97228.25;4211856;28;20278;-88
2023/12/21 09:00:40;;;;;;;2.15;0.88;;;;;;;8.32;100.00;97237.03;4190477;28;20287;-87
2023/12/21 09:02:42;;;;;;;1.75;0.80;;;;;;;8.35;100.00;97219.44;4189303;28;20204;-85
2023/12/21 09:04:47;;;;;;;3.05;0.50;;;;;;;8.33;100.00;97223.06;4189097;28;20202;-86
2023/12/21 09:06:50;;;;;;;1.45;0.80;;;;;;;8.38;100.00;97227.00;4208863;28;20804;-87
2023/12/21 09:08:54;;;;;;;1.58;0.77;;;;;;;8.38;100.00;97221.81;4189392;28;20280;-87
2023/12/21 09:10:57;;;;;;;1.00;0.40;;;;;;;8.38;100.00;97213.19;4204055;28;20209;-89
2023/12/21 09:13:00;;;;;;;1.27;0.50;;;;;;;8.35;100.00;97206.44;4188844;28;20932;-89
2023/12/21 09:15:04;;;;;;;1.33;0.60;;;;;;;8.32;100.00;97191.09;4201334;28;20582;-89
2023/12/21 09:17:09;;;;;;;1.40;0.50;;;;;;;8.36;100.00;97194.28;4190988;28;20201;-89
2023/12/21 09:19:12;;;;;;;1.23;0.43;;;;;;;8.36;100.00;97192.53;4205021;28;20201;-89
2023/12/21 09:21:16;;;;;;;1.88;0.57;;;;;;;8.36;100.00;97187.34;4205197;28;20196;-89
2023/12/21 09:23:19;;;;;;;1.10;0.50;;;;;;;8.34;100.00;97191.78;4194585;28;20229;-89
2023/12/21 09:25:22;;;;;;;1.58;0.50;;;;;;;8.40;100.00;97169.75;4193191;28;20234;-89
2023/12/21 09:27:27;;;;;;;3.17;0.50;;;;;;;8.35;100.00;97154.50;4205640;28;20292;-88
2023/12/21 09:29:30;;;;;;;1.15;0.40;;;;;;;8.38;100.00;97163.84;4208561;28;20212;-89
2023/12/21 09:31:34;;;;;;;1.95;0.60;;;;;;;8.42;100.00;97176.47;4195433;28;20292;-90
2023/12/21 09:33:40;;;;;;;2.40;0.70;;;;;;;8.43;100.00;97188.50;4192721;28;20231;-90
2023/12/21 09:35:43;;;;;;;1.20;0.52;;;;;;;8.45;100.00;97189.25;4205361;28;20313;-90
2023/12/21 09:37:47;;;;;;;2.53;0.50;;;;;;;8.48;100.00;97186.44;4191034;28;20207;-89
2023/12/21 09:39:51;;;;;;;1.27;0.55;;;;;;;8.51;100.00;97166.22;4208542;28;20209;-89
2023/12/21 09:41:55;;;;;;;1.10;0.40;;;;;;;8.50;99.90;97163.75;4214806;28;20204;-91
2023/12/21 09:44:06;;;;;;;1.00;0.40;;;;;;;8.51;100.00;97150.63;4204985;28;20213;-90